Weather at Salzburg Airport

Public forecast

Using degrees Celsius for public forecast. Weather courtesy of forecast.io.

Current aviation weather report (METAR) for Salzburg Airport

Retrieved 2020/11/27 16:20 UTC (5 minutes ago):

LOWS 271620Z 30004KT 6000 FEW002 BKN003 M00/M00 Q1020 BECMG 3000

Aviation forecast (TAF) for Salzburg Airport

Retrieved 2020/11/27 12:21 UTC (4 hours ago):

TAF LOWS 271115Z 2712/2812 VRB02KT 9999 FEW005 TX04/2713Z TNM03/2802Z BECMG 2714/2716 5000 BKN005 TEMPO 2718/2808 0200 FZFG VV001 BECMG 2808/2810 9999 FEW005